sensor_id;sensor_type;location;lat;lon;timestamp;P1;durP1;ratioP1;P2;durP2;ratioP2
38457;SDS011;24239;48.058;10.486;2022-07-29T00:01:58;7.40;;;4.72;;
38457;SDS011;24239;48.058;10.486;2022-07-29T00:04:24;6.03;;;4.78;;
38457;SDS011;24239;48.058;10.486;2022-07-29T00:06:50;7.50;;;5.13;;
38457;SDS011;24239;48.058;10.486;2022-07-29T00:09:16;10.52;;;5.38;;
38457;SDS011;24239;48.058;10.486;2022-07-29T00:11:42;8.48;;;5.70;;
38457;SDS011;24239;48.058;10.486;2022-07-29T00:14:08;6.53;;;5.28;;
38457;SDS011;24239;48.058;10.486;2022-07-29T00:16:34;10.75;;;5.68;;
38457;SDS011;24239;48.058;10.486;2022-07-29T00:19:00;7.75;;;4.72;;
38457;SDS011;24239;48.058;10.486;2022-07-29T00:21:26;7.20;;;4.30;;
38457;SDS011;24239;48.058;10.486;2022-07-29T00:23:51;7.13;;;4.35;;
38457;SDS011;24239;48.058;10.486;2022-07-29T00:26:17;10.10;;;4.88;;
38457;SDS011;24239;48.058;10.486;2022-07-29T00:28:43;4.40;;;4.00;;
38457;SDS011;24239;48.058;10.486;2022-07-29T00:31:09;10.48;;;4.60;;
38457;SDS011;24239;48.058;10.486;2022-07-29T00:33:34;7.70;;;4.43;;
38457;SDS011;24239;48.058;10.486;2022-07-29T00:36:00;6.30;;;4.85;;
38457;SDS011;24239;48.058;10.486;2022-07-29T00:38:26;5.22;;;4.68;;
38457;SDS011;24239;48.058;10.486;2022-07-29T00:40:52;6.78;;;4.60;;
38457;SDS011;24239;48.058;10.486;2022-07-29T00:43:18;8.65;;;5.13;;
38457;SDS011;24239;48.058;10.486;2022-07-29T00:45:44;6.38;;;4.75;;
38457;SDS011;24239;48.058;10.486;2022-07-29T00:48:09;9.65;;;5.30;;
38457;SDS011;24239;48.058;10.486;2022-07-29T00:50:35;7.40;;;4.82;;
38457;SDS011;24239;48.058;10.486;2022-07-29T00:53:02;9.80;;;5.13;;
38457;SDS011;24239;48.058;10.486;2022-07-29T00:55:29;9.48;;;5.00;;
38457;SDS011;24239;48.058;10.486;2022-07-29T00:57:55;9.38;;;5.07;;
38457;SDS011;24239;48.058;10.486;2022-07-29T01:00:24;6.10;;;5.13;;
38457;SDS011;24239;48.058;10.486;2022-07-29T01:02:51;6.10;;;5.03;;
38457;SDS011;24239;48.058;10.486;2022-07-29T01:05:18;5.72;;;4.53;;
38457;SDS011;24239;48.058;10.486;2022-07-29T01:07:46;6.38;;;5.07;;
38457;SDS011;24239;48.058;10.486;2022-07-29T01:10:15;5.28;;;4.78;;
38457;SDS011;24239;48.058;10.486;2022-07-29T01:12:43;10.55;;;4.68;;
38457;SDS011;24239;48.058;10.486;2022-07-29T01:15:11;8.20;;;4.97;;
38457;SDS011;24239;48.058;10.486;2022-07-29T01:34:25;6.53;;;4.65;;
38457;SDS011;24239;48.058;10.486;2022-07-29T01:39:49;6.40;;;4.47;;
38457;SDS011;24239;48.058;10.486;2022-07-29T01:46:11;6.45;;;3.95;;
38457;SDS011;24239;48.058;10.486;2022-07-29T01:53:55;6.38;;;4.38;;
38457;SDS011;24239;48.058;10.486;2022-07-29T01:56:43;7.68;;;4.68;;
38457;SDS011;24239;48.058;10.486;2022-07-29T01:59:12;6.07;;;4.47;;
38457;SDS011;24239;48.058;10.486;2022-07-29T02:01:39;6.10;;;4.05;;
38457;SDS011;24239;48.058;10.486;2022-07-29T02:04:06;7.32;;;3.97;;
38457;SDS011;24239;48.058;10.486;2022-07-29T02:06:35;3.75;;;3.45;;
38457;SDS011;24239;48.058;10.486;2022-07-29T02:09:03;4.65;;;4.20;;
38457;SDS011;24239;48.058;10.486;2022-07-29T02:11:31;3.80;;;3.50;;
38457;SDS011;24239;48.058;10.486;2022-07-29T02:13:59;4.63;;;3.80;;
38457;SDS011;24239;48.058;10.486;2022-07-29T02:16:28;7.13;;;4.57;;
38457;SDS011;24239;48.058;10.486;2022-07-29T02:18:55;4.40;;;4.00;;
38457;SDS011;24239;48.058;10.486;2022-07-29T02:21:25;4.18;;;3.75;;
38457;SDS011;24239;48.058;10.486;2022-07-29T02:23:53;5.43;;;3.47;;
38457;SDS011;24239;48.058;10.486;2022-07-29T02:26:20;6.38;;;3.72;;
38457;SDS011;24239;48.058;10.486;2022-07-29T02:28:49;7.68;;;3.63;;
38457;SDS011;24239;48.058;10.486;2022-07-29T02:31:20;4.35;;;3.95;;
38457;SDS011;24239;48.058;10.486;2022-07-29T02:33:49;4.30;;;3.60;;
38457;SDS011;24239;48.058;10.486;2022-07-29T02:36:15;6.63;;;4.15;;
38457;SDS011;24239;48.058;10.486;2022-07-29T02:38:42;4.60;;;4.05;;
38457;SDS011;24239;48.058;10.486;2022-07-29T02:41:18;8.20;;;4.05;;
38457;SDS011;24239;48.058;10.486;2022-07-29T02:46:19;5.25;;;3.70;;
38457;SDS011;24239;48.058;10.486;2022-07-29T02:49:04;6.22;;;4.38;;
38457;SDS011;24239;48.058;10.486;2022-07-29T02:51:34;5.28;;;4.70;;
38457;SDS011;24239;48.058;10.486;2022-07-29T02:54:08;7.22;;;4.07;;
38457;SDS011;24239;48.058;10.486;2022-07-29T02:56:36;4.18;;;3.75;;
38457;SDS011;24239;48.058;10.486;2022-07-29T02:59:06;7.40;;;3.65;;
38457;SDS011;24239;48.058;10.486;2022-07-29T03:01:35;7.45;;;3.90;;
38457;SDS011;24239;48.058;10.486;2022-07-29T03:04:05;4.35;;;3.47;;
38457;SDS011;24239;48.058;10.486;2022-07-29T03:06:33;6.53;;;3.50;;
38457;SDS011;24239;48.058;10.486;2022-07-29T03:08:59;5.05;;;3.65;;
38457;SDS011;24239;48.058;10.486;2022-07-29T03:11:26;5.78;;;3.78;;
38457;SDS011;24239;48.058;10.486;2022-07-29T03:13:52;6.13;;;4.20;;
38457;SDS011;24239;48.058;10.486;2022-07-29T03:16:19;6.95;;;4.18;;
38457;SDS011;24239;48.058;10.486;2022-07-29T03:18:46;7.50;;;4.65;;
38457;SDS011;24239;48.058;10.486;2022-07-29T03:21:12;6.80;;;4.20;;
38457;SDS011;24239;48.058;10.486;2022-07-29T03:23:42;11.48;;;4.43;;
38457;SDS011;24239;48.058;10.486;2022-07-29T03:26:10;10.45;;;3.88;;
38457;SDS011;24239;48.058;10.486;2022-07-29T03:28:37;10.52;;;3.80;;
38457;SDS011;24239;48.058;10.486;2022-07-29T03:31:02;6.07;;;3.58;;
38457;SDS011;24239;48.058;10.486;2022-07-29T03:33:28;10.65;;;4.10;;
38457;SDS011;24239;48.058;10.486;2022-07-29T03:35:55;4.60;;;3.85;;
38457;SDS011;24239;48.058;10.486;2022-07-29T03:38:21;8.50;;;4.30;;
38457;SDS011;24239;48.058;10.486;2022-07-29T03:40:54;9.25;;;5.32;;
38457;SDS011;24239;48.058;10.486;2022-07-29T03:43:23;10.50;;;5.03;;
38457;SDS011;24239;48.058;10.486;2022-07-29T03:45:52;5.32;;;4.63;;
38457;SDS011;24239;48.058;10.486;2022-07-29T03:48:20;11.40;;;4.95;;
38457;SDS011;24239;48.058;10.486;2022-07-29T03:50:49;9.80;;;5.82;;
38457;SDS011;24239;48.058;10.486;2022-07-29T03:53:16;11.38;;;4.88;;
38457;SDS011;24239;48.058;10.486;2022-07-29T03:55:47;9.75;;;4.80;;
38457;SDS011;24239;48.058;10.486;2022-07-29T03:58:17;8.40;;;4.60;;
38457;SDS011;24239;48.058;10.486;2022-07-29T04:00:44;7.00;;;4.70;;
38457;SDS011;24239;48.058;10.486;2022-07-29T04:03:11;8.13;;;5.20;;
38457;SDS011;24239;48.058;10.486;2022-07-29T04:05:38;6.05;;;4.35;;
38457;SDS011;24239;48.058;10.486;2022-07-29T04:08:04;7.85;;;4.70;;
38457;SDS011;24239;48.058;10.486;2022-07-29T04:10:30;12.02;;;4.55;;
38457;SDS011;24239;48.058;10.486;2022-07-29T04:12:56;9.73;;;5.00;;
38457;SDS011;24239;48.058;10.486;2022-07-29T04:15:21;6.63;;;5.07;;
38457;SDS011;24239;48.058;10.486;2022-07-29T04:17:47;9.25;;;4.80;;
38457;SDS011;24239;48.058;10.486;2022-07-29T04:20:13;8.85;;;4.82;;
38457;SDS011;24239;48.058;10.486;2022-07-29T04:22:39;4.45;;;4.00;;
38457;SDS011;24239;48.058;10.486;2022-07-29T04:25:05;8.40;;;4.20;;
38457;SDS011;24239;48.058;10.486;2022-07-29T04:27:31;6.40;;;3.10;;
38457;SDS011;24239;48.058;10.486;2022-07-29T04:29:57;8.77;;;3.33;;
38457;SDS011;24239;48.058;10.486;2022-07-29T04:32:23;8.32;;;2.88;;
38457;SDS011;24239;48.058;10.486;2022-07-29T04:34:50;5.40;;;2.88;;
38457;SDS011;24239;48.058;10.486;2022-07-29T04:37:16;4.30;;;2.72;;
38457;SDS011;24239;48.058;10.486;2022-07-29T04:39:41;4.88;;;2.72;;
38457;SDS011;24239;48.058;10.486;2022-07-29T04:42:07;4.43;;;2.58;;
38457;SDS011;24239;48.058;10.486;2022-07-29T04:44:33;7.10;;;2.55;;
38457;SDS011;24239;48.058;10.486;2022-07-29T04:46:59;8.00;;;3.25;;
38457;SDS011;24239;48.058;10.486;2022-07-29T04:49:25;4.10;;;2.30;;
38457;SDS011;24239;48.058;10.486;2022-07-29T04:51:51;5.53;;;2.80;;
38457;SDS011;24239;48.058;10.486;2022-07-29T04:54:16;6.15;;;2.58;;
38457;SDS011;24239;48.058;10.486;2022-07-29T04:56:42;7.03;;;2.53;;
38457;SDS011;24239;48.058;10.486;2022-07-29T04:59:08;6.57;;;2.53;;
38457;SDS011;24239;48.058;10.486;2022-07-29T05:01:34;7.47;;;2.33;;
38457;SDS011;24239;48.058;10.486;2022-07-29T05:04:00;6.57;;;2.15;;
38457;SDS011;24239;48.058;10.486;2022-07-29T05:06:26;7.85;;;2.35;;
38457;SDS011;24239;48.058;10.486;2022-07-29T05:08:51;7.32;;;2.20;;
38457;SDS011;24239;48.058;10.486;2022-07-29T05:11:17;7.22;;;2.70;;
38457;SDS011;24239;48.058;10.486;2022-07-29T05:13:43;7.15;;;2.22;;
38457;SDS011;24239;48.058;10.486;2022-07-29T05:16:09;6.25;;;2.60;;
38457;SDS011;24239;48.058;10.486;2022-07-29T05:18:34;4.82;;;2.33;;
38457;SDS011;24239;48.058;10.486;2022-07-29T05:21:00;8.20;;;2.15;;
38457;SDS011;24239;48.058;10.486;2022-07-29T05:23:26;6.35;;;1.88;;
38457;SDS011;24239;48.058;10.486;2022-07-29T05:25:55;4.15;;;1.80;;
38457;SDS011;24239;48.058;10.486;2022-07-29T05:28:40;2.88;;;1.80;;
38457;SDS011;24239;48.058;10.486;2022-07-29T05:31:11;4.68;;;1.85;;
38457;SDS011;24239;48.058;10.486;2022-07-29T05:33:40;2.90;;;1.75;;
38457;SDS011;24239;48.058;10.486;2022-07-29T05:36:06;2.28;;;1.73;;
38457;SDS011;24239;48.058;10.486;2022-07-29T05:38:33;4.13;;;1.70;;
38457;SDS011;24239;48.058;10.486;2022-07-29T05:41:02;2.00;;;1.40;;
38457;SDS011;24239;48.058;10.486;2022-07-29T05:43:29;3.58;;;1.58;;
38457;SDS011;24239;48.058;10.486;2022-07-29T05:45:55;2.80;;;1.60;;
38457;SDS011;24239;48.058;10.486;2022-07-29T05:48:21;2.13;;;1.73;;
38457;SDS011;24239;48.058;10.486;2022-07-29T05:50:47;4.45;;;1.77;;
38457;SDS011;24239;48.058;10.486;2022-07-29T05:53:12;1.83;;;1.65;;
38457;SDS011;24239;48.058;10.486;2022-07-29T05:55:38;1.75;;;1.50;;
38457;SDS011;24239;48.058;10.486;2022-07-29T05:58:04;1.60;;;1.50;;
38457;SDS011;24239;48.058;10.486;2022-07-29T06:00:30;3.47;;;1.67;;
38457;SDS011;24239;48.058;10.486;2022-07-29T06:02:56;2.42;;;2.00;;
38457;SDS011;24239;48.058;10.486;2022-07-29T06:05:23;3.65;;;2.00;;
38457;SDS011;24239;48.058;10.486;2022-07-29T06:08:14;2.53;;;1.90;;
38457;SDS011;24239;48.058;10.486;2022-07-29T06:11:12;3.47;;;1.67;;
38457;SDS011;24239;48.058;10.486;2022-07-29T06:13:40;2.50;;;1.98;;
38457;SDS011;24239;48.058;10.486;2022-07-29T06:16:06;3.05;;;1.92;;
38457;SDS011;24239;48.058;10.486;2022-07-29T06:18:31;2.88;;;2.17;;
38457;SDS011;24239;48.058;10.486;2022-07-29T06:20:57;5.60;;;2.50;;
38457;SDS011;24239;48.058;10.486;2022-07-29T06:23:23;2.45;;;2.13;;
38457;SDS011;24239;48.058;10.486;2022-07-29T06:25:49;2.40;;;2.13;;
38457;SDS011;24239;48.058;10.486;2022-07-29T06:28:17;3.67;;;1.80;;
38457;SDS011;24239;48.058;10.486;2022-07-29T06:30:46;3.20;;;2.10;;
38457;SDS011;24239;48.058;10.486;2022-07-29T06:33:15;6.00;;;2.45;;
38457;SDS011;24239;48.058;10.486;2022-07-29T06:35:42;2.30;;;2.10;;
38457;SDS011;24239;48.058;10.486;2022-07-29T06:38:09;3.92;;;1.85;;
38457;SDS011;24239;48.058;10.486;2022-07-29T06:40:36;2.45;;;2.20;;
38457;SDS011;24239;48.058;10.486;2022-07-29T06:43:24;4.00;;;2.47;;
38457;SDS011;24239;48.058;10.486;2022-07-29T06:45:50;3.33;;;2.10;;
38457;SDS011;24239;48.058;10.486;2022-07-29T06:48:15;2.50;;;2.30;;
38457;SDS011;24239;48.058;10.486;2022-07-29T06:50:43;2.30;;;2.00;;
38457;SDS011;24239;48.058;10.486;2022-07-29T06:53:09;2.92;;;2.40;;
38457;SDS011;24239;48.058;10.486;2022-07-29T06:55:35;5.07;;;2.80;;
38457;SDS011;24239;48.058;10.486;2022-07-29T06:58:03;4.00;;;2.20;;
38457;SDS011;24239;48.058;10.486;2022-07-29T07:00:28;3.53;;;2.50;;
38457;SDS011;24239;48.058;10.486;2022-07-29T07:02:54;3.72;;;2.00;;
38457;SDS011;24239;48.058;10.486;2022-07-29T07:05:20;5.63;;;2.05;;
38457;SDS011;24239;48.058;10.486;2022-07-29T07:07:46;1.88;;;1.77;;
38457;SDS011;24239;48.058;10.486;2022-07-29T07:10:12;2.50;;;2.05;;
38457;SDS011;24239;48.058;10.486;2022-07-29T07:12:38;3.08;;;2.00;;
38457;SDS011;24239;48.058;10.486;2022-07-29T07:15:09;2.88;;;2.03;;
38457;SDS011;24239;48.058;10.486;2022-07-29T07:17:38;2.95;;;1.70;;
38457;SDS011;24239;48.058;10.486;2022-07-29T07:20:20;2.72;;;1.80;;
38457;SDS011;24239;48.058;10.486;2022-07-29T07:23:36;4.10;;;1.80;;
38457;SDS011;24239;48.058;10.486;2022-07-29T07:26:07;3.25;;;2.00;;
38457;SDS011;24239;48.058;10.486;2022-07-29T07:28:33;4.05;;;1.95;;
38457;SDS011;24239;48.058;10.486;2022-07-29T07:30:59;3.30;;;1.92;;
38457;SDS011;24239;48.058;10.486;2022-07-29T07:33:25;2.60;;;1.90;;
38457;SDS011;24239;48.058;10.486;2022-07-29T07:35:54;2.67;;;1.83;;
38457;SDS011;24239;48.058;10.486;2022-07-29T07:38:27;2.95;;;2.00;;
38457;SDS011;24239;48.058;10.486;2022-07-29T07:40:56;2.55;;;2.20;;
38457;SDS011;24239;48.058;10.486;2022-07-29T07:44:21;4.10;;;1.90;;
38457;SDS011;24239;48.058;10.486;2022-07-29T07:47:07;1.92;;;1.73;;
38457;SDS011;24239;48.058;10.486;2022-07-29T07:49:40;3.20;;;2.10;;
38457;SDS011;24239;48.058;10.486;2022-07-29T07:52:09;3.05;;;2.35;;
38457;SDS011;24239;48.058;10.486;2022-07-29T07:54:35;3.85;;;1.90;;
38457;SDS011;24239;48.058;10.486;2022-07-29T07:57:01;3.35;;;2.00;;
38457;SDS011;24239;48.058;10.486;2022-07-29T07:59:29;3.10;;;2.03;;
38457;SDS011;24239;48.058;10.486;2022-07-29T08:01:58;3.53;;;1.90;;
38457;SDS011;24239;48.058;10.486;2022-07-29T08:04:25;5.53;;;2.20;;
38457;SDS011;24239;48.058;10.486;2022-07-29T08:06:54;3.67;;;1.80;;
38457;SDS011;24239;48.058;10.486;2022-07-29T08:09:21;3.40;;;2.17;;
38457;SDS011;24239;48.058;10.486;2022-07-29T08:11:48;5.25;;;2.40;;
38457;SDS011;24239;48.058;10.486;2022-07-29T08:14:13;3.53;;;2.28;;
38457;SDS011;24239;48.058;10.486;2022-07-29T08:16:40;2.50;;;2.30;;
38457;SDS011;24239;48.058;10.486;2022-07-29T08:19:28;2.15;;;1.88;;
38457;SDS011;24239;48.058;10.486;2022-07-29T08:21:53;2.53;;;2.03;;
38457;SDS011;24239;48.058;10.486;2022-07-29T08:24:19;4.82;;;2.55;;
38457;SDS011;24239;48.058;10.486;2022-07-29T08:27:13;2.60;;;2.13;;
38457;SDS011;24239;48.058;10.486;2022-07-29T08:29:39;4.55;;;2.10;;
38457;SDS011;24239;48.058;10.486;2022-07-29T08:32:07;4.88;;;2.30;;
38457;SDS011;24239;48.058;10.486;2022-07-29T08:34:33;2.50;;;2.00;;
38457;SDS011;24239;48.058;10.486;2022-07-29T08:36:59;3.13;;;2.25;;
38457;SDS011;24239;48.058;10.486;2022-07-29T08:39:25;4.45;;;2.00;;
38457;SDS011;24239;48.058;10.486;2022-07-29T08:41:51;4.28;;;2.72;;
38457;SDS011;24239;48.058;10.486;2022-07-29T08:44:18;3.08;;;2.33;;
38457;SDS011;24239;48.058;10.486;2022-07-29T08:46:44;3.15;;;2.50;;
38457;SDS011;24239;48.058;10.486;2022-07-29T08:49:10;5.55;;;2.10;;
38457;SDS011;24239;48.058;10.486;2022-07-29T08:51:36;2.63;;;2.42;;
38457;SDS011;24239;48.058;10.486;2022-07-29T08:54:05;3.83;;;2.90;;
38457;SDS011;24239;48.058;10.486;2022-07-29T08:56:33;5.53;;;2.53;;
38457;SDS011;24239;48.058;10.486;2022-07-29T08:58:59;3.58;;;2.75;;
38457;SDS011;24239;48.058;10.486;2022-07-29T09:01:29;4.97;;;3.28;;
38457;SDS011;24239;48.058;10.486;2022-07-29T09:03:58;3.30;;;2.90;;
38457;SDS011;24239;48.058;10.486;2022-07-29T09:06:27;2.72;;;2.47;;
38457;SDS011;24239;48.058;10.486;2022-07-29T09:08:59;3.28;;;2.63;;
38457;SDS011;24239;48.058;10.486;2022-07-29T09:11:25;5.15;;;2.95;;
38457;SDS011;24239;48.058;10.486;2022-07-29T09:13:52;3.38;;;2.92;;
38457;SDS011;24239;48.058;10.486;2022-07-29T09:16:18;3.35;;;3.05;;
38457;SDS011;24239;48.058;10.486;2022-07-29T09:18:44;3.38;;;3.08;;
38457;SDS011;24239;48.058;10.486;2022-07-29T09:21:16;4.72;;;3.33;;
38457;SDS011;24239;48.058;10.486;2022-07-29T09:24:02;5.28;;;3.40;;
38457;SDS011;24239;48.058;10.486;2022-07-29T09:26:36;3.70;;;3.40;;
38457;SDS011;24239;48.058;10.486;2022-07-29T09:29:11;3.42;;;3.13;;
38457;SDS011;24239;48.058;10.486;2022-07-29T09:31:45;4.53;;;3.58;;
38457;SDS011;24239;48.058;10.486;2022-07-29T09:34:22;6.55;;;3.78;;
38457;SDS011;24239;48.058;10.486;2022-07-29T09:36:50;3.95;;;3.40;;
38457;SDS011;24239;48.058;10.486;2022-07-29T09:39:30;3.30;;;3.00;;
38457;SDS011;24239;48.058;10.486;2022-07-29T09:42:02;3.47;;;3.17;;
38457;SDS011;24239;48.058;10.486;2022-07-29T09:44:49;4.30;;;2.65;;
38457;SDS011;24239;48.058;10.486;2022-07-29T09:47:18;3.22;;;2.92;;
38457;SDS011;24239;48.058;10.486;2022-07-29T09:52:20;5.00;;;3.25;;
38457;SDS011;24239;48.058;10.486;2022-07-29T09:54:46;5.93;;;2.95;;
38457;SDS011;24239;48.058;10.486;2022-07-29T10:00:13;5.78;;;2.58;;
38457;SDS011;24239;48.058;10.486;2022-07-29T10:02:45;2.65;;;2.28;;
38457;SDS011;24239;48.058;10.486;2022-07-29T10:07:54;5.00;;;2.55;;
38457;SDS011;24239;48.058;10.486;2022-07-29T10:10:25;4.05;;;2.58;;
38457;SDS011;24239;48.058;10.486;2022-07-29T10:13:00;4.60;;;2.88;;
38457;SDS011;24239;48.058;10.486;2022-07-29T10:15:28;4.20;;;2.20;;
38457;SDS011;24239;48.058;10.486;2022-07-29T10:17:57;5.25;;;2.50;;
38457;SDS011;24239;48.058;10.486;2022-07-29T10:20:24;3.13;;;2.42;;
38457;SDS011;24239;48.058;10.486;2022-07-29T10:22:51;2.67;;;2.22;;
38457;SDS011;24239;48.058;10.486;2022-07-29T10:25:23;3.72;;;2.60;;
38457;SDS011;24239;48.058;10.486;2022-07-29T10:27:50;4.15;;;2.65;;
38457;SDS011;24239;48.058;10.486;2022-07-29T10:30:17;3.65;;;2.85;;
38457;SDS011;24239;48.058;10.486;2022-07-29T10:44:34;2.90;;;2.45;;
38457;SDS011;24239;48.058;10.486;2022-07-29T10:46:48;2.80;;;1.90;;
38457;SDS011;24239;48.058;10.486;2022-07-29T10:49:16;2.30;;;2.10;;
38457;SDS011;24239;48.058;10.486;2022-07-29T10:52:20;4.20;;;2.20;;
38457;SDS011;24239;48.058;10.486;2022-07-29T10:54:42;2.88;;;2.08;;
38457;SDS011;24239;48.058;10.486;2022-07-29T10:57:15;2.78;;;1.90;;
38457;SDS011;24239;48.058;10.486;2022-07-29T11:05:13;3.67;;;2.13;;
38457;SDS011;24239;48.058;10.486;2022-07-29T11:10:37;2.45;;;1.95;;
38457;SDS011;24239;48.058;10.486;2022-07-29T11:13:09;2.20;;;2.00;;
38457;SDS011;24239;48.058;10.486;2022-07-29T11:18:22;2.90;;;2.00;;
38457;SDS011;24239;48.058;10.486;2022-07-29T11:20:49;3.47;;;2.05;;
38457;SDS011;24239;48.058;10.486;2022-07-29T11:23:31;5.03;;;2.28;;
38457;SDS011;24239;48.058;10.486;2022-07-29T11:29:05;2.60;;;2.40;;
38457;SDS011;24239;48.058;10.486;2022-07-29T11:31:41;2.70;;;2.25;;
38457;SDS011;24239;48.058;10.486;2022-07-29T11:34:27;3.97;;;2.33;;
38457;SDS011;24239;48.058;10.486;2022-07-29T11:47:47;3.35;;;2.40;;
38457;SDS011;24239;48.058;10.486;2022-07-29T11:50:29;2.90;;;2.53;;
38457;SDS011;24239;48.058;10.486;2022-07-29T11:52:57;2.33;;;2.08;;
38457;SDS011;24239;48.058;10.486;2022-07-29T11:55:23;4.88;;;2.05;;
38457;SDS011;24239;48.058;10.486;2022-07-29T12:00:21;3.67;;;2.55;;
38457;SDS011;24239;48.058;10.486;2022-07-29T12:02:58;3.35;;;2.45;;
38457;SDS011;24239;48.058;10.486;2022-07-29T12:05:43;5.05;;;2.78;;
38457;SDS011;24239;48.058;10.486;2022-07-29T12:08:14;2.45;;;2.25;;
38457;SDS011;24239;48.058;10.486;2022-07-29T12:10:49;2.88;;;2.40;;
38457;SDS011;24239;48.058;10.486;2022-07-29T12:13:16;3.28;;;2.30;;
38457;SDS011;24239;48.058;10.486;2022-07-29T12:15:52;3.20;;;2.42;;
38457;SDS011;24239;48.058;10.486;2022-07-29T12:18:20;3.40;;;2.47;;
38457;SDS011;24239;48.058;10.486;2022-07-29T12:20:47;3.28;;;2.60;;
38457;SDS011;24239;48.058;10.486;2022-07-29T12:23:13;4.30;;;2.80;;
38457;SDS011;24239;48.058;10.486;2022-07-29T12:25:42;3.40;;;2.78;;
38457;SDS011;24239;48.058;10.486;2022-07-29T12:28:10;4.53;;;2.90;;
38457;SDS011;24239;48.058;10.486;2022-07-29T12:35:53;2.83;;;2.40;;
38457;SDS011;24239;48.058;10.486;2022-07-29T12:38:21;4.00;;;2.83;;
38457;SDS011;24239;48.058;10.486;2022-07-29T12:40:47;2.65;;;2.45;;
38457;SDS011;24239;48.058;10.486;2022-07-29T12:43:19;5.07;;;2.60;;
38457;SDS011;24239;48.058;10.486;2022-07-29T12:45:48;3.03;;;2.50;;
38457;SDS011;24239;48.058;10.486;2022-07-29T12:48:36;3.05;;;2.65;;
38457;SDS011;24239;48.058;10.486;2022-07-29T12:51:04;3.05;;;2.28;;
38457;SDS011;24239;48.058;10.486;2022-07-29T12:53:31;4.10;;;2.55;;
38457;SDS011;24239;48.058;10.486;2022-07-29T12:55:58;2.88;;;2.47;;
38457;SDS011;24239;48.058;10.486;2022-07-29T13:01:19;6.93;;;2.50;;
38457;SDS011;24239;48.058;10.486;2022-07-29T13:03:45;3.15;;;2.33;;
38457;SDS011;24239;48.058;10.486;2022-07-29T13:06:32;3.60;;;2.58;;
38457;SDS011;24239;48.058;10.486;2022-07-29T13:09:12;2.80;;;2.50;;
38457;SDS011;24239;48.058;10.486;2022-07-29T13:14:06;3.50;;;2.70;;
38457;SDS011;24239;48.058;10.486;2022-07-29T13:16:34;3.50;;;2.75;;
38457;SDS011;24239;48.058;10.486;2022-07-29T13:19:07;5.38;;;2.53;;
38457;SDS011;24239;48.058;10.486;2022-07-29T13:21:34;4.60;;;2.63;;
38457;SDS011;24239;48.058;10.486;2022-07-29T13:24:01;3.15;;;2.65;;
38457;SDS011;24239;48.058;10.486;2022-07-29T13:26:29;3.20;;;2.45;;
38457;SDS011;24239;48.058;10.486;2022-07-29T13:28:55;3.78;;;2.58;;
38457;SDS011;24239;48.058;10.486;2022-07-29T13:31:21;2.80;;;2.55;;
38457;SDS011;24239;48.058;10.486;2022-07-29T13:33:47;5.60;;;2.60;;
38457;SDS011;24239;48.058;10.486;2022-07-29T13:36:13;3.30;;;2.50;;
38457;SDS011;24239;48.058;10.486;2022-07-29T13:38:39;4.40;;;2.70;;
38457;SDS011;24239;48.058;10.486;2022-07-29T13:41:04;3.10;;;2.80;;
38457;SDS011;24239;48.058;10.486;2022-07-29T13:43:30;2.72;;;2.53;;
38457;SDS011;24239;48.058;10.486;2022-07-29T13:46:00;3.05;;;2.33;;
38457;SDS011;24239;48.058;10.486;2022-07-29T13:48:40;5.78;;;3.03;;
38457;SDS011;24239;48.058;10.486;2022-07-29T13:51:06;3.08;;;2.35;;
38457;SDS011;24239;48.058;10.486;2022-07-29T13:53:32;2.90;;;2.17;;
38457;SDS011;24239;48.058;10.486;2022-07-29T13:55:58;2.80;;;2.10;;
38457;SDS011;24239;48.058;10.486;2022-07-29T13:58:24;2.75;;;2.00;;
38457;SDS011;24239;48.058;10.486;2022-07-29T14:00:50;4.60;;;2.60;;
38457;SDS011;24239;48.058;10.486;2022-07-29T14:03:15;3.72;;;2.17;;
38457;SDS011;24239;48.058;10.486;2022-07-29T14:05:41;2.97;;;2.10;;
38457;SDS011;24239;48.058;10.486;2022-07-29T14:08:07;2.47;;;2.00;;
38457;SDS011;24239;48.058;10.486;2022-07-29T14:10:33;3.03;;;2.25;;
38457;SDS011;24239;48.058;10.486;2022-07-29T14:12:59;2.33;;;2.13;;
38457;SDS011;24239;48.058;10.486;2022-07-29T14:15:25;2.15;;;1.95;;
38457;SDS011;24239;48.058;10.486;2022-07-29T14:17:50;2.47;;;1.98;;
38457;SDS011;24239;48.058;10.486;2022-07-29T14:20:16;4.30;;;2.60;;
38457;SDS011;24239;48.058;10.486;2022-07-29T14:22:43;5.03;;;2.03;;
38457;SDS011;24239;48.058;10.486;2022-07-29T14:25:11;3.63;;;1.90;;
38457;SDS011;24239;48.058;10.486;2022-07-29T14:27:37;1.92;;;1.73;;
38457;SDS011;24239;48.058;10.486;2022-07-29T14:30:03;3.50;;;2.00;;
38457;SDS011;24239;48.058;10.486;2022-07-29T14:32:29;2.47;;;2.15;;
38457;SDS011;24239;48.058;10.486;2022-07-29T14:34:55;3.95;;;2.30;;
38457;SDS011;24239;48.058;10.486;2022-07-29T14:37:21;2.47;;;2.28;;
38457;SDS011;24239;48.058;10.486;2022-07-29T14:39:47;4.60;;;2.55;;
38457;SDS011;24239;48.058;10.486;2022-07-29T14:42:13;5.05;;;2.50;;
38457;SDS011;24239;48.058;10.486;2022-07-29T14:44:39;2.53;;;2.30;;
38457;SDS011;24239;48.058;10.486;2022-07-29T14:47:06;5.45;;;2.13;;
38457;SDS011;24239;48.058;10.486;2022-07-29T14:49:32;3.22;;;2.55;;
38457;SDS011;24239;48.058;10.486;2022-07-29T14:51:58;2.88;;;2.40;;
38457;SDS011;24239;48.058;10.486;2022-07-29T14:54:23;3.65;;;2.47;;
38457;SDS011;24239;48.058;10.486;2022-07-29T14:56:49;2.92;;;2.60;;
38457;SDS011;24239;48.058;10.486;2022-07-29T14:59:16;2.85;;;2.42;;
38457;SDS011;24239;48.058;10.486;2022-07-29T15:01:42;3.67;;;2.85;;
38457;SDS011;24239;48.058;10.486;2022-07-29T15:04:08;3.17;;;2.70;;
38457;SDS011;24239;48.058;10.486;2022-07-29T15:06:34;2.80;;;2.33;;
38457;SDS011;24239;48.058;10.486;2022-07-29T15:09:01;3.47;;;2.78;;
38457;SDS011;24239;48.058;10.486;2022-07-29T15:11:27;4.07;;;2.80;;
38457;SDS011;24239;48.058;10.486;2022-07-29T15:13:52;4.15;;;2.80;;
38457;SDS011;24239;48.058;10.486;2022-07-29T15:16:18;2.38;;;2.17;;
38457;SDS011;24239;48.058;10.486;2022-07-29T15:18:44;4.60;;;2.42;;
38457;SDS011;24239;48.058;10.486;2022-07-29T15:21:10;2.78;;;2.42;;
38457;SDS011;24239;48.058;10.486;2022-07-29T15:23:36;5.60;;;2.20;;
38457;SDS011;24239;48.058;10.486;2022-07-29T15:26:02;2.63;;;2.38;;
38457;SDS011;24239;48.058;10.486;2022-07-29T15:28:29;2.83;;;2.50;;
38457;SDS011;24239;48.058;10.486;2022-07-29T15:31:00;3.75;;;2.85;;
38457;SDS011;24239;48.058;10.486;2022-07-29T15:33:26;2.58;;;2.38;;
38457;SDS011;24239;48.058;10.486;2022-07-29T15:35:52;3.50;;;2.53;;
38457;SDS011;24239;48.058;10.486;2022-07-29T15:38:18;2.97;;;2.67;;
38457;SDS011;24239;48.058;10.486;2022-07-29T15:40:43;2.72;;;2.40;;
38457;SDS011;24239;48.058;10.486;2022-07-29T15:43:10;3.92;;;2.90;;
38457;SDS011;24239;48.058;10.486;2022-07-29T15:45:37;2.92;;;2.60;;
38457;SDS011;24239;48.058;10.486;2022-07-29T15:48:08;2.88;;;2.63;;
38457;SDS011;24239;48.058;10.486;2022-07-29T15:50:34;5.13;;;2.80;;
38457;SDS011;24239;48.058;10.486;2022-07-29T15:53:00;3.33;;;2.30;;
38457;SDS011;24239;48.058;10.486;2022-07-29T15:55:27;3.88;;;3.00;;
38457;SDS011;24239;48.058;10.486;2022-07-29T15:57:56;4.13;;;1.70;;
38457;SDS011;24239;48.058;10.486;2022-07-29T16:00:24;2.00;;;1.73;;
38457;SDS011;24239;48.058;10.486;2022-07-29T16:02:53;4.88;;;2.25;;
38457;SDS011;24239;48.058;10.486;2022-07-29T16:05:19;2.65;;;2.35;;
38457;SDS011;24239;48.058;10.486;2022-07-29T16:07:48;5.60;;;3.10;;
38457;SDS011;24239;48.058;10.486;2022-07-29T16:10:13;3.92;;;3.30;;
38457;SDS011;24239;48.058;10.486;2022-07-29T16:12:39;10.65;;;5.07;;